Check out our new PWSWeather beta!
PWSweather.com
Personal Weather Stations
Station Observations
GRD01
Warsaw, LesznoPL 05-084

WarsawLesznoPL 05-084

Lat: 52.257404, Lon: 20.564847

Elevation: 298

Station Type: WH3080

http://pogoda.kampinos.waw.pl

High Low Average
Temperature 36.7°F2.6°C 32.7°F0.4°C 35.4°F1.9°C
Dew Point 32.0°F0.0°C 24.7°F-4.1°C 29.3°F-1.5°C
Winds 7.6 mph 12.2 kmh Calm Calm 3.0 mph S4.8 kmh S
Wind Gusts 11.4 mph18.3 kmh 1.6 mph2.6 kmh 6.0 mph9.7 kmh
Humidity 85% 63% 79%
Pressure 30.08 in1018.6 mb 29.66 in1004.4 mb -
Precipitation 0.21 in5.3 mm - -
Hour Temp Dew Point Humidity Winds Wind Gusts Pressure Precip Precip Rate Daily Precip Total
12:14 AM 35.8°F2.1°C 25.2°F-3.8°C 65% 3.8 mph SE6.1 kmh SE 7.6 mph12.2 kmh 29.70 in1005.8 mb 0.00 in0.0 mm 0.00 in0.0 mm 0.00 in0.0 mm
12:29 AM 35.8°F2.1°C 25.2°F-3.8°C 65% 5.4 mph SE8.7 kmh SE 9.2 mph14.8 kmh 29.70 in1005.8 mb 0.00 in0.0 mm 0.00 in0.0 mm 0.00 in0.0 mm
12:44 AM 35.8°F2.1°C 24.8°F-4.0°C 64% 3.8 mph SE6.1 kmh SE 8.3 mph13.4 kmh 29.69 in1005.4 mb 0.00 in0.0 mm 0.00 in0.0 mm 0.00 in0.0 mm
12:59 AM 36.0°F2.2°C 25.0°F-3.9°C 64% 5.4 mph SE8.7 kmh SE 7.6 mph12.2 kmh 29.70 in1005.8 mb 0.00 in0.0 mm 0.00 in0.0 mm 0.00 in0.0 mm
01:14 AM 36.1°F2.3°C 25.1°F-3.8°C 64% 6.9 mph ESE11.1 kmh ESE 9.2 mph14.8 kmh 29.70 in1005.8 mb 0.00 in0.0 mm 0.00 in0.0 mm 0.00 in0.0 mm
01:29 AM 36.1°F2.3°C 24.7°F-4.1°C 63% 4.5 mph SE7.2 kmh SE 9.2 mph14.8 kmh 29.69 in1005.4 mb 0.00 in0.0 mm 0.00 in0.0 mm 0.00 in0.0 mm
01:44 AM 36.3°F2.4°C 24.9°F-3.9°C 63% 7.6 mph SE12.2 kmh SE 9.8 mph15.8 kmh 29.69 in1005.4 mb 0.00 in0.0 mm 0.00 in0.0 mm 0.00 in0.0 mm
01:59 AM 36.3°F2.4°C 24.9°F-3.9°C 63% 5.4 mph SE8.7 kmh SE 8.3 mph13.4 kmh 29.68 in1005.1 mb 0.00 in0.0 mm 0.00 in0.0 mm 0.00 in0.0 mm
02:14 AM 36.1°F2.3°C 24.7°F-4.1°C 63% 4.5 mph SE7.2 kmh SE 8.3 mph13.4 kmh 29.68 in1005.1 mb 0.00 in0.0 mm 0.00 in0.0 mm 0.00 in0.0 mm
02:29 AM 36.1°F2.3°C 25.1°F-3.8°C 64% 5.4 mph SE8.7 kmh SE 9.2 mph14.8 kmh 29.68 in1005.1 mb 0.00 in0.0 mm 0.00 in0.0 mm 0.00 in0.0 mm
02:44 AM 36.1°F2.3°C 25.1°F-3.8°C 64% 4.5 mph SE7.2 kmh SE 8.3 mph13.4 kmh 29.68 in1005.1 mb 0.00 in0.0 mm 0.00 in0.0 mm 0.00 in0.0 mm
02:59 AM 36.1°F2.3°C 25.1°F-3.8°C 64% 5.4 mph SE8.7 kmh SE 9.2 mph14.8 kmh 29.67 in1004.7 mb 0.00 in0.0 mm 0.00 in0.0 mm 0.00 in0.0 mm
03:14 AM 36.1°F2.3°C 25.1°F-3.8°C 64% 7.6 mph SE12.2 kmh SE 9.8 mph15.8 kmh 29.68 in1005.1 mb 0.00 in0.0 mm 0.00 in0.0 mm 0.00 in0.0 mm
03:29 AM 36.1°F2.3°C 25.1°F-3.8°C 64% 6.0 mph ESE9.7 kmh ESE 9.8 mph15.8 kmh 29.67 in1004.7 mb 0.00 in0.0 mm 0.00 in0.0 mm 0.00 in0.0 mm
03:44 AM 36.1°F2.3°C 25.5°F-3.6°C 65% 4.5 mph ESE7.2 kmh ESE 8.3 mph13.4 kmh 29.67 in1004.7 mb 0.00 in0.0 mm 0.00 in0.0 mm 0.00 in0.0 mm
03:59 AM 36.0°F2.2°C 25.3°F-3.7°C 65% 3.8 mph SE6.1 kmh SE 9.8 mph15.8 kmh 29.66 in1004.4 mb 0.00 in0.0 mm 0.00 in0.0 mm 0.00 in0.0 mm
04:14 AM 35.8°F2.1°C 25.5°F-3.6°C 66% 3.8 mph SE6.1 kmh SE 11.4 mph18.3 kmh 29.66 in1004.4 mb 0.00 in0.0 mm 0.00 in0.0 mm 0.00 in0.0 mm
04:29 AM 35.4°F1.9°C 26.3°F-3.2°C 69% 4.5 mph SE7.2 kmh SE 6.9 mph11.1 kmh 29.66 in1004.4 mb 0.00 in0.0 mm 0.00 in0.0 mm 0.00 in0.0 mm
04:44 AM 35.1°F1.7°C 26.3°F-3.2°C 70% 4.5 mph SE7.2 kmh SE 7.6 mph12.2 kmh 29.66 in1004.4 mb 0.00 in0.0 mm 0.00 in0.0 mm 0.00 in0.0 mm
04:59 AM 34.9°F1.6°C 26.8°F-2.9°C 72% 3.1 mph SE5.0 kmh SE 6.9 mph11.1 kmh 29.67 in1004.7 mb 0.00 in0.0 mm 0.00 in0.0 mm 0.00 in0.0 mm
05:14 AM 34.9°F1.6°C 26.8°F-2.9°C 72% 4.5 mph ESE7.2 kmh ESE 7.6 mph12.2 kmh 29.66 in1004.4 mb 0.00 in0.0 mm 0.00 in0.0 mm 0.00 in0.0 mm
05:29 AM 34.7°F1.5°C 26.9°F-2.8°C 73% 3.1 mph ESE5.0 kmh ESE 9.2 mph14.8 kmh 29.67 in1004.7 mb 0.00 in0.0 mm 0.00 in0.0 mm 0.00 in0.0 mm
05:44 AM 34.7°F1.5°C 27.3°F-2.6°C 74% 2.2 mph E3.5 kmh E 6.0 mph9.7 kmh 29.67 in1004.7 mb 0.00 in0.0 mm 0.00 in0.0 mm 0.00 in0.0 mm
05:59 AM 34.7°F1.5°C 27.6°F-2.4°C 75% 2.2 mph E3.5 kmh E 4.5 mph7.2 kmh 29.67 in1004.7 mb 0.00 in0.0 mm 0.00 in0.0 mm 0.00 in0.0 mm
06:14 AM 34.7°F1.5°C 27.9°F-2.3°C 76% 3.8 mph E6.1 kmh E 5.4 mph8.7 kmh 29.67 in1004.7 mb 0.00 in0.0 mm 0.00 in0.0 mm 0.00 in0.0 mm
06:29 AM 34.7°F1.5°C 28.2°F-2.1°C 77% 0.7 mph E1.1 kmh E 4.5 mph7.2 kmh 29.68 in1005.1 mb 0.00 in0.0 mm 0.00 in0.0 mm 0.00 in0.0 mm
06:44 AM 34.7°F1.5°C 28.5°F-1.9°C 78% 4.5 mph ENE7.2 kmh ENE 5.4 mph8.7 kmh 29.68 in1005.1 mb 0.00 in0.0 mm 0.00 in0.0 mm 0.00 in0.0 mm
06:59 AM 34.7°F1.5°C 28.5°F-1.9°C 78% 0.7 mph E1.1 kmh E 6.0 mph9.7 kmh 29.68 in1005.1 mb 0.00 in0.0 mm 0.00 in0.0 mm 0.00 in0.0 mm
07:14 AM 34.7°F1.5°C 28.9°F-1.7°C 79% 4.5 mph ENE7.2 kmh ENE 5.4 mph8.7 kmh 29.68 in1005.1 mb 0.00 in0.0 mm 0.00 in0.0 mm 0.00 in0.0 mm
07:29 AM 34.5°F1.4°C 29.0°F-1.7°C 80% 3.1 mph ENE5.0 kmh ENE 6.0 mph9.7 kmh 29.68 in1005.1 mb 0.00 in0.0 mm 0.00 in0.0 mm 0.00 in0.0 mm
07:44 AM 34.5°F1.4°C 29.0°F-1.7°C 80% 4.5 mph ENE7.2 kmh ENE 6.9 mph11.1 kmh 29.69 in1005.4 mb 0.00 in0.0 mm 0.00 in0.0 mm 0.00 in0.0 mm
07:59 AM 34.5°F1.4°C 29.0°F-1.7°C 80% 1.6 mph ENE2.6 kmh ENE 5.4 mph8.7 kmh 29.69 in1005.4 mb 0.00 in0.0 mm 0.00 in0.0 mm 0.00 in0.0 mm
08:14 AM 34.5°F1.4°C 29.0°F-1.7°C 80% 3.8 mph NE6.1 kmh NE 5.4 mph8.7 kmh 29.69 in1005.4 mb 0.00 in0.0 mm 0.00 in0.0 mm 0.00 in0.0 mm
08:29 AM 34.5°F1.4°C 29.3°F-1.5°C 81% 1.6 mph NE2.6 kmh NE 5.4 mph8.7 kmh 29.69 in1005.4 mb 0.00 in0.0 mm 0.00 in0.0 mm 0.00 in0.0 mm
08:44 AM 34.5°F1.4°C 29.3°F-1.5°C 81% 1.6 mph ENE2.6 kmh ENE 6.9 mph11.1 kmh 29.70 in1005.8 mb 0.00 in0.0 mm 0.00 in0.0 mm 0.00 in0.0 mm
08:59 AM 34.5°F1.4°C 29.3°F-1.5°C 81% 3.1 mph NE5.0 kmh NE 5.4 mph8.7 kmh 29.70 in1005.8 mb 0.00 in0.0 mm 0.00 in0.0 mm 0.00 in0.0 mm
09:14 AM 34.5°F1.4°C 29.3°F-1.5°C 81% 0.7 mph ENE1.1 kmh ENE 6.9 mph11.1 kmh 29.71 in1006.1 mb 0.00 in0.0 mm 0.00 in0.0 mm 0.00 in0.0 mm
09:29 AM 34.7°F1.5°C 29.5°F-1.4°C 81% 2.2 mph NE3.5 kmh NE 3.8 mph6.1 kmh 29.71 in1006.1 mb 0.00 in0.0 mm 0.00 in0.0 mm 0.00 in0.0 mm
09:44 AM 34.7°F1.5°C 29.5°F-1.4°C 81% 5.4 mph ENE8.7 kmh ENE 6.0 mph9.7 kmh 29.72 in1006.4 mb 0.00 in0.0 mm 0.00 in0.0 mm 0.00 in0.0 mm
09:59 AM 34.7°F1.5°C 29.8°F-1.2°C 82% 2.2 mph NE3.5 kmh NE 5.4 mph8.7 kmh 29.72 in1006.4 mb 0.00 in0.0 mm 0.00 in0.0 mm 0.00 in0.0 mm
10:14 AM 34.9°F1.6°C 29.9°F-1.2°C 82% 3.1 mph ENE5.0 kmh ENE 4.5 mph7.2 kmh 29.73 in1006.8 mb 0.00 in0.0 mm 0.00 in0.0 mm 0.00 in0.0 mm
10:29 AM 35.2°F1.8°C 30.3°F-0.9°C 82% 2.2 mph NE3.5 kmh NE 3.8 mph6.1 kmh 29.73 in1006.8 mb 0.00 in0.0 mm 0.00 in0.0 mm 0.00 in0.0 mm
10:44 AM 35.4°F1.9°C 30.5°F-0.8°C 82% 3.1 mph ENE5.0 kmh ENE 7.6 mph12.2 kmh 29.74 in1007.1 mb 0.00 in0.0 mm 0.00 in0.0 mm 0.00 in0.0 mm
10:59 AM 35.6°F2.0°C 30.6°F-0.8°C 82% 5.4 mph ENE8.7 kmh ENE 6.9 mph11.1 kmh 29.74 in1007.1 mb 0.00 in0.0 mm 0.00 in0.0 mm 0.00 in0.0 mm
11:14 AM 35.6°F2.0°C 30.6°F-0.8°C 82% 2.2 mph E3.5 kmh E 6.0 mph9.7 kmh 29.74 in1007.1 mb 0.00 in0.0 mm 0.00 in0.0 mm 0.00 in0.0 mm
11:29 AM 35.6°F2.0°C 30.6°F-0.8°C 82% 3.8 mph ESE6.1 kmh ESE 5.4 mph8.7 kmh 29.74 in1007.1 mb 0.00 in0.0 mm 0.00 in0.0 mm 0.00 in0.0 mm
11:44 AM 35.6°F2.0°C 30.9°F-0.6°C 83% 1.6 mph E2.6 kmh E 5.4 mph8.7 kmh 29.75 in1007.5 mb 0.00 in0.0 mm 0.00 in0.0 mm 0.00 in0.0 mm
11:59 AM 35.8°F2.1°C 31.1°F-0.5°C 83% 3.1 mph E5.0 kmh E 5.4 mph8.7 kmh 29.76 in1007.8 mb 0.00 in0.0 mm 0.00 in0.0 mm 0.00 in0.0 mm
12:14 PM 35.8°F2.1°C 31.1°F-0.5°C 83% Calm Calm 3.8 mph6.1 kmh 29.76 in1007.8 mb 0.01 in0.3 mm 0.01 in0.3 mm 0.01 in0.3 mm
12:29 PM 36.1°F2.3°C 31.5°F-0.3°C 83% 0.7 mph SE1.1 kmh SE 4.5 mph7.2 kmh 29.77 in1008.1 mb 0.02 in0.5 mm 0.04 in1.0 mm 0.02 in0.5 mm
12:44 PM 36.3°F2.4°C 31.7°F-0.2°C 83% 2.2 mph ESE3.5 kmh ESE 3.8 mph6.1 kmh 29.77 in1008.1 mb 0.04 in1.0 mm 0.08 in2.0 mm 0.04 in1.0 mm
12:59 PM 36.3°F2.4°C 31.7°F-0.2°C 83% Calm Calm 1.6 mph2.6 kmh 29.78 in1008.5 mb 0.06 in1.5 mm 0.08 in2.0 mm 0.06 in1.5 mm
01:14 PM 36.7°F2.6°C 32.0°F0.0°C 83% Calm Calm 2.2 mph3.5 kmh 29.78 in1008.5 mb 0.02 in0.5 mm 0.00 in0.0 mm 0.08 in2.0 mm
01:29 PM 36.7°F2.6°C 32.0°F0.0°C 83% Calm Calm 1.6 mph2.6 kmh 29.79 in1008.8 mb 0.04 in1.0 mm 0.08 in2.0 mm 0.09 in2.3 mm
01:44 PM 36.7°F2.6°C 32.0°F0.0°C 83% 0.7 mph SE1.1 kmh SE 2.2 mph3.5 kmh 29.80 in1009.1 mb 0.06 in1.5 mm 0.08 in2.0 mm 0.12 in3.0 mm
01:59 PM 36.5°F2.5°C 31.8°F-0.1°C 83% 0.7 mph SE1.1 kmh SE 2.2 mph3.5 kmh 29.81 in1009.5 mb 0.07 in1.8 mm 0.04 in1.0 mm 0.13 in3.3 mm
02:14 PM 36.5°F2.5°C 31.8°F-0.1°C 83% 1.6 mph ESE2.6 kmh ESE 2.2 mph3.5 kmh 29.81 in1009.5 mb 0.05 in1.3 mm 0.00 in0.0 mm 0.13 in3.3 mm
02:29 PM 36.3°F2.4°C 31.7°F-0.2°C 83% 1.6 mph N2.6 kmh N 6.0 mph9.7 kmh 29.81 in1009.5 mb 0.04 in1.0 mm 0.00 in0.0 mm 0.14 in3.6 mm
02:44 PM 36.3°F2.4°C 31.7°F-0.2°C 83% 3.1 mph N5.0 kmh N 4.5 mph7.2 kmh 29.83 in1010.2 mb 0.04 in1.0 mm 0.00 in0.0 mm 0.15 in3.8 mm
02:59 PM 36.1°F2.3°C 31.5°F-0.3°C 83% 2.2 mph N3.5 kmh N 5.4 mph8.7 kmh 29.84 in1010.5 mb 0.02 in0.5 mm 0.00 in0.0 mm 0.15 in3.8 mm
03:14 PM 36.1°F2.3°C 31.5°F-0.3°C 83% 2.2 mph N3.5 kmh N 3.8 mph6.1 kmh 29.84 in1010.5 mb 0.01 in0.3 mm 0.00 in0.0 mm 0.17 in4.3 mm
03:29 PM 36.0°F2.2°C 31.3°F-0.4°C 83% 3.8 mph N6.1 kmh N 4.5 mph7.2 kmh 29.86 in1011.2 mb 0.01 in0.3 mm 0.00 in0.0 mm 0.17 in4.3 mm
03:44 PM 36.0°F2.2°C 31.3°F-0.4°C 83% 3.1 mph N5.0 kmh N 6.0 mph9.7 kmh 29.86 in1011.2 mb 0.02 in0.5 mm 0.04 in1.0 mm 0.18 in4.6 mm
03:59 PM 36.0°F2.2°C 31.3°F-0.4°C 83% 3.1 mph N5.0 kmh N 4.5 mph7.2 kmh 29.86 in1011.2 mb 0.02 in0.5 mm 0.00 in0.0 mm 0.18 in4.6 mm
04:14 PM 36.0°F2.2°C 31.6°F-0.2°C 84% 3.1 mph NNW5.0 kmh NNW 4.5 mph7.2 kmh 29.88 in1011.9 mb 0.01 in0.3 mm 0.00 in0.0 mm 0.18 in4.6 mm
04:29 PM 35.8°F2.1°C 31.4°F-0.3°C 84% 3.8 mph NW6.1 kmh NW 5.4 mph8.7 kmh 29.89 in1012.2 mb 0.02 in0.5 mm 0.04 in1.0 mm 0.19 in4.8 mm
04:44 PM 35.8°F2.1°C 31.4°F-0.3°C 84% 3.1 mph N5.0 kmh N 3.8 mph6.1 kmh 29.89 in1012.2 mb 0.01 in0.3 mm 0.00 in0.0 mm 0.19 in4.8 mm
04:59 PM 35.8°F2.1°C 31.4°F-0.3°C 84% 3.8 mph NW6.1 kmh NW 4.5 mph7.2 kmh 29.90 in1012.5 mb 0.01 in0.3 mm 0.00 in0.0 mm 0.19 in4.8 mm
05:14 PM 35.6°F2.0°C 31.2°F-0.4°C 84% 3.1 mph N5.0 kmh N 4.5 mph7.2 kmh 29.91 in1012.9 mb 0.00 in0.0 mm 0.00 in0.0 mm 0.19 in4.8 mm
05:29 PM 35.6°F2.0°C 31.2°F-0.4°C 84% 3.1 mph N5.0 kmh N 4.5 mph7.2 kmh 29.92 in1013.2 mb 0.01 in0.3 mm 0.04 in1.0 mm 0.20 in5.1 mm
05:44 PM 35.6°F2.0°C 31.2°F-0.4°C 84% 1.6 mph N2.6 kmh N 5.4 mph8.7 kmh 29.91 in1012.9 mb 0.01 in0.3 mm 0.00 in0.0 mm 0.20 in5.1 mm
05:59 PM 35.6°F2.0°C 31.2°F-0.4°C 84% 0.7 mph NNW1.1 kmh NNW 3.8 mph6.1 kmh 29.93 in1013.5 mb 0.01 in0.3 mm 0.00 in0.0 mm 0.20 in5.1 mm
06:14 PM 35.6°F2.0°C 31.2°F-0.4°C 84% 2.2 mph NW3.5 kmh NW 3.1 mph5.0 kmh 29.93 in1013.5 mb 0.01 in0.3 mm 0.00 in0.0 mm 0.20 in5.1 mm
06:29 PM 35.4°F1.9°C 31.1°F-0.5°C 84% 3.8 mph NW6.1 kmh NW 5.4 mph8.7 kmh 29.94 in1013.9 mb 0.00 in0.0 mm 0.00 in0.0 mm 0.20 in5.1 mm
06:44 PM 35.4°F1.9°C 31.1°F-0.5°C 84% 3.8 mph NW6.1 kmh NW 5.4 mph8.7 kmh 29.96 in1014.6 mb 0.00 in0.0 mm 0.00 in0.0 mm 0.20 in5.1 mm
06:59 PM 35.4°F1.9°C 31.1°F-0.5°C 84% 5.4 mph NNW8.7 kmh NNW 6.9 mph11.1 kmh 29.96 in1014.6 mb 0.00 in0.0 mm 0.00 in0.0 mm 0.20 in5.1 mm
07:14 PM 35.4°F1.9°C 31.1°F-0.5°C 84% 5.4 mph NW8.7 kmh NW 7.6 mph12.2 kmh 29.98 in1015.2 mb 0.00 in0.0 mm 0.00 in0.0 mm 0.20 in5.1 mm
07:29 PM 35.4°F1.9°C 31.1°F-0.5°C 84% 3.1 mph NW5.0 kmh NW 6.9 mph11.1 kmh 29.98 in1015.2 mb 0.00 in0.0 mm 0.00 in0.0 mm 0.20 in5.1 mm
07:44 PM 35.4°F1.9°C 31.1°F-0.5°C 84% 3.1 mph NNW5.0 kmh NNW 6.0 mph9.7 kmh 29.99 in1015.6 mb 0.01 in0.3 mm 0.04 in1.0 mm 0.21 in5.3 mm
07:59 PM 35.4°F1.9°C 31.1°F-0.5°C 84% 2.2 mph NNW3.5 kmh NNW 5.4 mph8.7 kmh 29.99 in1015.6 mb 0.01 in0.3 mm 0.00 in0.0 mm 0.21 in5.3 mm
08:14 PM 35.4°F1.9°C 31.1°F-0.5°C 84% 3.1 mph NNW5.0 kmh NNW 4.5 mph7.2 kmh 29.99 in1015.6 mb 0.01 in0.3 mm 0.00 in0.0 mm 0.21 in5.3 mm
08:29 PM 35.4°F1.9°C 31.1°F-0.5°C 84% 3.8 mph NW6.1 kmh NW 5.4 mph8.7 kmh 30.00 in1015.9 mb 0.01 in0.3 mm 0.00 in0.0 mm 0.21 in5.3 mm
08:44 PM 35.4°F1.9°C 31.1°F-0.5°C 84% 2.2 mph NW3.5 kmh NW 5.4 mph8.7 kmh 30.01 in1016.3 mb 0.00 in0.0 mm 0.00 in0.0 mm 0.21 in5.3 mm
08:59 PM 35.4°F1.9°C 31.1°F-0.5°C 84% 3.8 mph NNW6.1 kmh NNW 6.9 mph11.1 kmh 30.02 in1016.6 mb 0.00 in0.0 mm 0.00 in0.0 mm 0.21 in5.3 mm
09:14 PM 35.4°F1.9°C 31.1°F-0.5°C 84% 6.0 mph NNW9.7 kmh NNW 7.6 mph12.2 kmh 30.02 in1016.6 mb 0.00 in0.0 mm 0.00 in0.0 mm 0.21 in5.3 mm
09:29 PM 35.6°F2.0°C 31.2°F-0.4°C 84% 3.1 mph NW5.0 kmh NW 5.4 mph8.7 kmh 30.03 in1016.9 mb 0.00 in0.0 mm 0.00 in0.0 mm 0.21 in5.3 mm
09:44 PM 35.6°F2.0°C 31.2°F-0.4°C 84% 3.1 mph NW5.0 kmh NW 5.4 mph8.7 kmh 30.03 in1016.9 mb 0.00 in0.0 mm 0.00 in0.0 mm 0.21 in5.3 mm
09:59 PM 35.6°F2.0°C 31.5°F-0.3°C 85% 3.1 mph NW5.0 kmh NW 6.0 mph9.7 kmh 30.03 in1016.9 mb 0.00 in0.0 mm 0.00 in0.0 mm 0.21 in5.3 mm
10:14 PM 35.4°F1.9°C 31.1°F-0.5°C 84% 3.1 mph NW5.0 kmh NW 6.0 mph9.7 kmh 30.05 in1017.6 mb 0.00 in0.0 mm 0.00 in0.0 mm 0.21 in5.3 mm
10:29 PM 35.1°F1.7°C 30.7°F-0.7°C 84% 3.1 mph NW5.0 kmh NW 4.5 mph7.2 kmh 30.04 in1017.3 mb 0.00 in0.0 mm 0.00 in0.0 mm 0.21 in5.3 mm
10:44 PM 34.5°F1.4°C 30.2°F-1.0°C 84% Calm Calm 3.1 mph5.0 kmh 30.05 in1017.6 mb 0.00 in0.0 mm 0.00 in0.0 mm 0.21 in5.3 mm
10:59 PM 34.0°F1.1°C 29.7°F-1.3°C 84% 0.7 mph NW1.1 kmh NW 1.6 mph2.6 kmh 30.05 in1017.6 mb 0.00 in0.0 mm 0.00 in0.0 mm 0.15 in3.8 mm
11:14 PM 33.4°F0.8°C 29.1°F-1.6°C 84% 0.7 mph WSW1.1 kmh WSW 3.1 mph5.0 kmh 30.05 in1017.6 mb 0.00 in0.0 mm 0.00 in0.0 mm 0.15 in3.8 mm
11:29 PM 32.9°F0.5°C 28.6°F-1.9°C 84% Calm Calm 1.6 mph2.6 kmh 30.07 in1018.3 mb 0.00 in0.0 mm 0.00 in0.0 mm 0.15 in3.8 mm
11:44 PM 32.9°F0.5°C 28.6°F-1.9°C 84% 0.7 mph SW1.1 kmh SW 1.6 mph2.6 kmh 30.07 in1018.3 mb 0.00 in0.0 mm 0.00 in0.0 mm 0.15 in3.8 mm
11:59 PM 32.7°F0.4°C 28.4°F-2.0°C 84% 0.7 mph SW1.1 kmh SW 2.2 mph3.5 kmh 30.08 in1018.6 mb 0.00 in0.0 mm 0.00 in0.0 mm 0.15 in3.8 mm